Time;durP1;ratioP1;P1;durP2;ratioP2;P2;SDS_P1;SDS_P2;PMS_P1;PMS_P2;Temp;Humidity;BMP_temperature;BMP_pressure;BME280_temperature;BME280_humidity;BME280_pressure;Samples;Min_cycle;Max_cycle;Signal;HPM_P1;HPM_P2
2023/11/08 00:01:34;;;;;;;4.23;0.97;;;8.10;99.90;;;;;;4911505;28;20188;-65
2023/11/08 00:04:00;;;;;;;2.13;0.80;;;8.10;99.90;;;;;;4913224;28;20195;-65
2023/11/08 00:06:26;;;;;;;5.50;1.10;;;8.10;99.90;;;;;;4913908;28;20287;-64
2023/11/08 00:08:52;;;;;;;6.03;1.00;;;8.10;99.90;;;;;;4919192;28;20260;-65
2023/11/08 00:11:22;;;;;;;5.53;1.10;;;8.10;99.90;;;;;;4933431;28;20216;-64
2023/11/08 00:13:48;;;;;;;5.17;1.30;;;8.10;99.90;;;;;;4913185;28;20216;-65
2023/11/08 00:16:14;;;;;;;5.30;1.17;;;8.10;99.90;;;;;;4913841;28;20232;-65
2023/11/08 00:18:39;;;;;;;5.67;1.30;;;8.10;99.90;;;;;;4912287;28;20192;-65
2023/11/08 00:21:06;;;;;;;3.90;1.10;;;8.10;99.90;;;;;;4907345;28;20211;-65
2023/11/08 00:23:32;;;;;;;4.13;1.17;;;8.10;99.90;;;;;;4913386;28;20192;-65
2023/11/08 00:25:57;;;;;;;7.90;1.20;;;8.10;99.90;;;;;;4913481;28;20541;-65
2023/11/08 00:28:23;;;;;;;4.17;1.40;;;8.10;99.90;;;;;;4913498;28;20743;-65
2023/11/08 00:30:48;;;;;;;3.97;1.10;;;8.10;99.90;;;;;;4913472;28;20705;-65
2023/11/08 00:33:15;;;;;;;6.70;1.00;;;8.10;99.90;;;;;;4913317;28;20876;-65
2023/11/08 00:35:40;;;;;;;3.70;0.93;;;8.10;99.90;;;;;;4913105;28;20199;-65
2023/11/08 00:38:06;;;;;;;4.40;1.20;;;8.10;99.90;;;;;;4913674;28;20188;-65
2023/11/08 00:40:31;;;;;;;3.77;1.20;;;8.20;99.90;;;;;;4905317;28;20261;-65
2023/11/08 00:42:57;;;;;;;6.50;1.23;;;8.10;99.90;;;;;;4913551;28;20270;-65
2023/11/08 00:45:22;;;;;;;6.17;1.23;;;8.10;99.90;;;;;;4912827;28;20284;-66
2023/11/08 00:47:50;;;;;;;3.23;1.13;;;8.00;99.90;;;;;;4913214;28;20227;-65
2023/11/08 00:50:15;;;;;;;7.27;1.30;;;8.00;99.90;;;;;;4912442;28;20212;-65
2023/11/08 00:52:41;;;;;;;4.93;1.57;;;8.00;99.90;;;;;;4913009;28;20196;-64
2023/11/08 00:55:07;;;;;;;4.27;1.03;;;8.00;99.90;;;;;;4912757;28;20196;-64
2023/11/08 00:57:32;;;;;;;7.13;1.10;;;8.00;99.90;;;;;;4912618;28;20188;-64
2023/11/08 00:59:58;;;;;;;5.47;1.40;;;8.00;99.90;;;;;;4905935;28;20211;-64
2023/11/08 01:02:24;;;;;;;4.83;1.20;;;8.00;99.90;;;;;;4913093;28;20184;-64
2023/11/08 01:04:49;;;;;;;2.30;1.00;;;8.00;99.90;;;;;;4912468;28;20398;-64
2023/11/08 01:07:15;;;;;;;5.40;1.47;;;8.10;99.90;;;;;;4912947;28;20215;-64
2023/11/08 01:09:41;;;;;;;6.83;1.20;;;8.10;99.90;;;;;;4912954;28;20234;-65
2023/11/08 01:12:06;;;;;;;6.20;1.50;;;8.10;99.90;;;;;;4913206;28;20211;-65
2023/11/08 01:14:32;;;;;;;6.03;0.90;;;8.00;99.90;;;;;;4912354;28;20615;-65
2023/11/08 01:16:59;;;;;;;6.53;1.10;;;8.00;99.90;;;;;;4912965;28;20642;-65
2023/11/08 01:19:28;;;;;;;2.73;1.13;;;8.00;99.90;;;;;;4912803;28;20704;-65
2023/11/08 01:21:53;;;;;;;3.73;1.10;;;7.90;99.90;;;;;;4912585;28;20180;-65
2023/11/08 01:24:19;;;;;;;10.70;1.37;;;7.90;99.90;;;;;;4905752;28;20280;-65
2023/11/08 01:26:45;;;;;;;2.30;1.20;;;7.90;99.90;;;;;;4909584;28;20245;-65
2023/11/08 01:29:10;;;;;;;6.57;1.10;;;7.80;99.90;;;;;;4901619;28;20227;-65
2023/11/08 01:31:36;;;;;;;6.80;1.30;;;7.90;99.90;;;;;;4910217;28;20565;-64
2023/11/08 01:34:02;;;;;;;2.70;0.90;;;7.90;99.90;;;;;;4904593;28;20207;-64
2023/11/08 01:36:30;;;;;;;6.40;0.97;;;7.90;99.90;;;;;;4912698;28;20676;-64
2023/11/08 01:38:56;;;;;;;2.40;1.00;;;7.90;99.90;;;;;;4926975;28;20189;-64
2023/11/08 01:41:22;;;;;;;4.00;0.80;;;7.90;99.90;;;;;;4930625;28;20206;-64
2023/11/08 01:43:47;;;;;;;1.70;0.90;;;7.90;99.90;;;;;;4911875;28;20290;-64
2023/11/08 01:46:25;;;;;;;2.47;0.87;;;7.90;99.90;;;;;;4912474;28;20195;-66
2023/11/08 01:48:54;;;;;;;2.80;1.00;;;8.00;99.90;;;;;;4912276;28;20219;-64
2023/11/08 01:51:21;;;;;;;4.63;1.20;;;8.00;99.90;;;;;;4912256;28;20295;-65
2023/11/08 01:53:49;;;;;;;6.53;1.10;;;7.90;99.90;;;;;;4911570;28;20188;-64
2023/11/08 01:56:16;;;;;;;3.23;1.10;;;7.90;99.90;;;;;;4912831;28;20184;-64
2023/11/08 01:58:42;;;;;;;4.23;1.10;;;7.90;99.90;;;;;;4910711;28;20187;-64
2023/11/08 02:01:09;;;;;;;4.40;0.80;;;7.90;99.90;;;;;;4905214;28;20208;-64
2023/11/08 02:03:39;;;;;;;5.77;1.30;;;7.90;99.90;;;;;;4910977;28;20208;-63
2023/11/08 02:06:07;;;;;;;1.97;0.80;;;7.90;99.90;;;;;;4912401;28;20195;-64
2023/11/08 02:08:33;;;;;;;4.60;1.10;;;7.90;99.90;;;;;;4912097;28;20218;-64
2023/11/08 02:10:59;;;;;;;4.87;0.87;;;7.90;99.90;;;;;;4912185;28;20582;-64
2023/11/08 02:13:26;;;;;;;2.63;0.83;;;7.90;99.90;;;;;;4912144;28;20187;-64
2023/11/08 02:15:52;;;;;;;4.27;0.93;;;7.90;99.90;;;;;;4911542;28;20191;-64
2023/11/08 02:18:18;;;;;;;4.00;0.90;;;7.90;99.90;;;;;;4912063;28;20621;-64
2023/11/08 02:20:44;;;;;;;3.43;0.73;;;7.90;99.90;;;;;;4911700;28;20211;-64
2023/11/08 02:23:10;;;;;;;3.00;1.00;;;7.80;99.90;;;;;;4912057;28;20206;-64
2023/11/08 02:25:38;;;;;;;2.43;1.00;;;7.60;99.90;;;;;;4903585;28;20196;-65
2023/11/08 02:28:03;;;;;;;4.33;0.90;;;7.60;99.90;;;;;;4911860;28;20712;-64
2023/11/08 02:30:29;;;;;;;6.67;1.27;;;7.60;99.90;;;;;;4911726;28;20204;-65
2023/11/08 02:32:55;;;;;;;4.50;1.13;;;7.50;99.90;;;;;;4903899;28;20211;-64
2023/11/08 02:35:20;;;;;;;3.37;0.90;;;7.50;99.90;;;;;;4911094;28;20190;-65
2023/11/08 02:37:48;;;;;;;5.03;0.73;;;7.50;99.90;;;;;;4911570;28;20239;-64
2023/11/08 02:40:14;;;;;;;7.23;0.90;;;7.50;99.90;;;;;;4911518;28;20216;-64
2023/11/08 02:42:44;;;;;;;2.47;1.03;;;7.50;99.90;;;;;;4911841;28;20283;-64
2023/11/08 02:45:10;;;;;;;7.27;1.00;;;7.50;99.90;;;;;;4903564;28;20188;-65
2023/11/08 02:47:36;;;;;;;7.27;1.20;;;7.40;99.90;;;;;;4911543;28;20212;-65
2023/11/08 02:50:02;;;;;;;5.17;1.40;;;7.40;99.90;;;;;;4910221;28;20262;-65
2023/11/08 02:52:27;;;;;;;7.00;1.50;;;7.40;99.90;;;;;;4904211;28;20238;-65
2023/11/08 02:54:53;;;;;;;6.13;1.33;;;7.50;99.90;;;;;;4922951;28;20197;-65
2023/11/08 02:57:19;;;;;;;6.57;1.67;;;7.60;99.90;;;;;;4931752;28;20275;-66
2023/11/08 02:59:48;;;;;;;2.47;1.10;;;7.60;99.90;;;;;;4911414;28;20361;-64
2023/11/08 03:02:14;;;;;;;5.23;1.20;;;7.60;99.90;;;;;;4903804;28;20253;-65
2023/11/08 03:04:41;;;;;;;3.13;0.90;;;7.60;99.90;;;;;;4910918;28;20653;-66
2023/11/08 03:07:07;;;;;;;2.37;0.80;;;7.60;99.90;;;;;;4911218;28;20188;-65
2023/11/08 03:09:33;;;;;;;6.90;0.93;;;7.60;99.90;;;;;;4911039;28;20249;-65
2023/11/08 03:11:59;;;;;;;2.23;1.03;;;7.60;99.90;;;;;;4910106;28;20193;-65
2023/11/08 03:14:25;;;;;;;9.50;1.00;;;7.60;99.90;;;;;;4912226;28;20275;-64
2023/11/08 03:16:51;;;;;;;1.63;0.70;;;7.60;99.90;;;;;;4914749;28;20184;-64
2023/11/08 03:19:17;;;;;;;3.23;0.97;;;7.70;99.90;;;;;;4914731;28;20210;-64
2023/11/08 03:21:49;;;;;;;5.17;0.93;;;7.70;99.90;;;;;;4906566;28;20644;-65
2023/11/08 03:24:15;;;;;;;2.30;1.10;;;7.70;99.90;;;;;;4914009;28;20176;-64
2023/11/08 03:26:44;;;;;;;4.47;1.03;;;7.70;99.90;;;;;;4914451;28;20564;-66
2023/11/08 03:29:09;;;;;;;1.83;0.77;;;7.70;99.90;;;;;;4947550;28;20203;-65
2023/11/08 03:31:36;;;;;;;4.97;1.30;;;7.70;99.90;;;;;;4916636;28;20191;-65
2023/11/08 03:34:03;;;;;;;5.47;1.00;;;7.70;99.90;;;;;;4943682;28;20192;-65
2023/11/08 03:36:29;;;;;;;2.17;1.30;;;7.70;99.90;;;;;;4906348;28;20610;-65
2023/11/08 03:38:56;;;;;;;2.33;1.00;;;7.70;99.90;;;;;;4914291;28;20271;-65
2023/11/08 03:41:24;;;;;;;5.63;1.00;;;7.70;99.90;;;;;;4914443;28;20204;-65
2023/11/08 03:43:51;;;;;;;4.03;1.03;;;7.70;99.90;;;;;;4913702;28;20275;-65
2023/11/08 03:46:17;;;;;;;6.03;1.03;;;7.70;99.90;;;;;;4906562;28;20219;-65
2023/11/08 03:48:42;;;;;;;4.57;1.03;;;7.70;99.90;;;;;;4906057;28;20255;-65
2023/11/08 03:51:08;;;;;;;8.30;1.40;;;7.80;99.90;;;;;;4947158;28;20258;-65
2023/11/08 03:53:34;;;;;;;7.63;1.13;;;7.70;99.90;;;;;;4913800;28;20182;-65
2023/11/08 03:56:00;;;;;;;9.83;2.07;;;7.70;99.90;;;;;;4913759;28;20266;-65
2023/11/08 03:58:25;;;;;;;12.00;1.50;;;7.70;99.90;;;;;;4914178;28;20196;-65
2023/11/08 04:00:51;;;;;;;7.60;1.70;;;7.70;99.90;;;;;;4913791;28;20208;-65
2023/11/08 04:03:18;;;;;;;2.73;1.23;;;7.70;99.90;;;;;;4913837;28;20185;-65
2023/11/08 04:05:43;;;;;;;3.03;1.00;;;7.70;99.90;;;;;;4913172;28;20588;-65
2023/11/08 04:08:10;;;;;;;8.33;1.77;;;7.70;99.90;;;;;;4909230;28;20216;-66
2023/11/08 04:10:36;;;;;;;4.30;1.50;;;7.70;99.90;;;;;;4911098;28;20699;-66
2023/11/08 04:13:02;;;;;;;5.17;1.50;;;7.80;99.90;;;;;;4913906;28;20665;-65
2023/11/08 04:15:29;;;;;;;6.03;1.47;;;7.80;99.90;;;;;;4912157;28;20261;-65
2023/11/08 04:17:55;;;;;;;2.43;0.90;;;7.70;99.90;;;;;;4918901;28;20192;-64
2023/11/08 04:20:21;;;;;;;5.83;1.57;;;7.70;99.90;;;;;;4933196;28;20207;-64
2023/11/08 04:22:46;;;;;;;4.27;1.47;;;7.80;99.90;;;;;;4905842;28;20263;-65
2023/11/08 04:25:12;;;;;;;5.47;1.50;;;7.80;99.90;;;;;;4912377;28;20568;-64
2023/11/08 04:27:38;;;;;;;8.73;1.50;;;7.80;99.90;;;;;;4913428;28;20569;-65
2023/11/08 04:30:04;;;;;;;4.03;1.40;;;7.80;99.90;;;;;;4913771;28;20677;-65
2023/11/08 04:32:29;;;;;;;5.27;1.70;;;7.80;99.90;;;;;;4913555;28;20610;-65
2023/11/08 04:34:55;;;;;;;8.23;1.50;;;7.90;99.90;;;;;;4904931;28;20295;-64
2023/11/08 04:37:21;;;;;;;5.27;1.63;;;7.80;99.90;;;;;;4913481;28;20600;-65
2023/11/08 04:39:49;;;;;;;6.80;1.40;;;7.80;99.90;;;;;;4913342;28;20219;-65
2023/11/08 04:42:14;;;;;;;6.17;1.60;;;7.90;99.90;;;;;;4912279;28;20705;-65
2023/11/08 04:44:45;;;;;;;3.37;1.80;;;7.90;99.90;;;;;;4905091;28;20281;-65
2023/11/08 04:47:14;;;;;;;4.93;1.67;;;7.90;99.90;;;;;;4913377;28;20187;-66
2023/11/08 04:49:40;;;;;;;5.40;1.20;;;7.90;99.90;;;;;;4912929;28;20310;-66
2023/11/08 04:52:08;;;;;;;3.47;1.30;;;7.90;99.90;;;;;;4913245;28;20291;-65
2023/11/08 04:54:34;;;;;;;9.30;1.77;;;7.90;99.90;;;;;;4912550;28;20642;-65
2023/11/08 04:57:00;;;;;;;4.30;1.50;;;8.00;99.90;;;;;;4913475;28;20276;-64
2023/11/08 04:59:25;;;;;;;7.23;1.30;;;8.00;99.90;;;;;;4913091;28;20219;-63
2023/11/08 05:01:51;;;;;;;3.40;1.20;;;8.00;99.90;;;;;;4913084;28;20188;-64
2023/11/08 05:04:16;;;;;;;3.83;1.40;;;8.00;99.90;;;;;;4912508;28;20649;-63
2023/11/08 05:06:42;;;;;;;5.27;1.20;;;8.00;99.90;;;;;;4905123;28;20649;-64
2023/11/08 05:09:07;;;;;;;6.87;1.60;;;8.00;99.90;;;;;;4912897;28;20644;-64
2023/11/08 05:11:33;;;;;;;4.33;1.20;;;8.00;99.90;;;;;;4912545;28;20188;-65
2023/11/08 05:14:00;;;;;;;8.77;1.67;;;7.90;99.90;;;;;;4909878;28;20234;-65
2023/11/08 05:16:26;;;;;;;8.23;1.67;;;7.90;99.90;;;;;;4912983;28;20180;-65
2023/11/08 05:18:52;;;;;;;5.17;1.57;;;7.90;99.90;;;;;;4912822;28;20203;-65
2023/11/08 05:21:19;;;;;;;8.33;1.43;;;7.90;99.90;;;;;;4912886;28;20215;-64
2023/11/08 05:23:45;;;;;;;7.90;2.40;;;7.90;99.90;;;;;;4904320;28;20203;-64
2023/11/08 05:26:10;;;;;;;3.07;1.60;;;7.90;99.90;;;;;;4904988;28;20199;-64
2023/11/08 05:28:37;;;;;;;4.33;1.77;;;7.90;99.90;;;;;;4912611;28;20311;-67
2023/11/08 05:31:03;;;;;;;5.67;1.70;;;7.90;99.90;;;;;;4912642;28;20299;-66
2023/11/08 05:33:28;;;;;;;6.83;1.70;;;7.90;99.90;;;;;;4945532;28;20267;-66
2023/11/08 05:35:55;;;;;;;4.33;1.60;;;7.90;99.90;;;;;;4912058;28;20184;-65
2023/11/08 05:38:21;;;;;;;5.37;1.57;;;8.00;99.90;;;;;;4912595;28;20199;-66
2023/11/08 05:40:47;;;;;;;6.10;1.50;;;7.90;99.90;;;;;;4904654;28;20209;-65
2023/11/08 05:43:13;;;;;;;2.80;1.33;;;7.90;99.90;;;;;;4912476;28;20184;-64
2023/11/08 05:45:38;;;;;;;6.37;1.50;;;7.90;99.90;;;;;;4948306;28;20646;-65
2023/11/08 05:48:04;;;;;;;4.23;1.63;;;7.90;99.90;;;;;;4937737;28;20703;-65
2023/11/08 05:50:30;;;;;;;5.00;1.10;;;7.90;99.90;;;;;;4908545;28;20230;-65
2023/11/08 05:52:55;;;;;;;3.43;1.30;;;7.90;99.90;;;;;;4911158;28;20731;-65
2023/11/08 05:55:21;;;;;;;5.40;1.20;;;7.90;99.90;;;;;;4945090;28;20181;-66
2023/11/08 05:57:50;;;;;;;4.47;1.40;;;7.90;99.90;;;;;;4919602;28;20246;-65
2023/11/08 06:00:16;;;;;;;5.80;1.50;;;7.90;99.90;;;;;;4912237;28;20214;-64
2023/11/08 06:02:42;;;;;;;3.80;1.50;;;7.90;99.90;;;;;;4912271;28;20204;-65
2023/11/08 06:05:08;;;;;;;4.83;1.90;;;8.00;99.90;;;;;;4944714;28;20238;-65
2023/11/08 06:07:34;;;;;;;4.20;1.47;;;7.90;99.90;;;;;;4910721;28;20212;-65
2023/11/08 06:10:00;;;;;;;3.67;1.40;;;8.00;99.90;;;;;;4912319;28;20211;-66
2023/11/08 06:12:26;;;;;;;6.03;1.57;;;8.00;99.90;;;;;;4912363;28;20188;-66
2023/11/08 06:14:52;;;;;;;6.83;1.63;;;8.00;99.90;;;;;;4909929;28;20592;-66
2023/11/08 06:17:18;;;;;;;3.00;1.40;;;8.00;99.90;;;;;;4912048;28;20226;-66
2023/11/08 06:19:44;;;;;;;7.00;1.50;;;8.00;99.90;;;;;;4911888;28;20576;-66
2023/11/08 06:22:10;;;;;;;6.97;1.43;;;8.00;99.90;;;;;;4912131;28;20238;-66
2023/11/08 06:24:35;;;;;;;4.43;1.67;;;8.10;99.90;;;;;;4911368;28;20649;-65
2023/11/08 06:27:02;;;;;;;8.03;1.50;;;8.10;99.90;;;;;;4911901;28;20176;-65
2023/11/08 06:29:28;;;;;;;2.63;1.10;;;8.10;99.90;;;;;;4912379;28;20211;-65
2023/11/08 06:31:54;;;;;;;2.10;1.03;;;8.10;99.90;;;;;;4912013;28;20199;-65
2023/11/08 06:34:19;;;;;;;6.33;1.33;;;8.10;99.90;;;;;;4903604;28;20180;-65
2023/11/08 06:36:45;;;;;;;7.63;1.77;;;8.00;99.90;;;;;;4903071;28;20256;-65
2023/11/08 06:39:14;;;;;;;3.60;1.47;;;8.00;99.90;;;;;;4911335;28;20196;-65
2023/11/08 06:41:39;;;;;;;3.57;1.20;;;8.00;99.90;;;;;;4903568;28;20180;-65
2023/11/08 06:44:05;;;;;;;5.90;1.47;;;8.00;99.90;;;;;;4910906;28;20204;-65
2023/11/08 06:46:31;;;;;;;3.90;1.60;;;8.00;99.90;;;;;;4911716;28;20184;-65
2023/11/08 06:48:57;;;;;;;5.70;1.97;;;8.10;99.90;;;;;;4910892;28;20607;-64
2023/11/08 06:51:23;;;;;;;7.83;1.80;;;8.10;99.90;;;;;;4910895;28;20210;-64
2023/11/08 06:53:50;;;;;;;6.10;2.30;;;8.10;99.90;;;;;;4910265;28;20180;-64
2023/11/08 06:56:15;;;;;;;7.37;2.00;;;8.00;99.90;;;;;;4910987;28;20242;-64
2023/11/08 06:58:41;;;;;;;8.03;2.00;;;8.00;99.90;;;;;;4910910;28;20195;-64
2023/11/08 07:01:07;;;;;;;4.17;1.77;;;8.00;99.90;;;;;;4902785;28;20204;-64
2023/11/08 07:03:33;;;;;;;4.37;1.73;;;8.00;99.90;;;;;;4910958;28;20194;-64
2023/11/08 07:05:59;;;;;;;6.83;2.70;;;8.10;99.90;;;;;;4910517;28;20192;-64
2023/11/08 07:08:25;;;;;;;6.10;1.87;;;8.00;99.90;;;;;;4910862;28;20230;-64
2023/11/08 07:10:51;;;;;;;11.37;2.60;;;8.10;99.90;;;;;;4906981;28;20235;-64
2023/11/08 07:13:17;;;;;;;6.80;1.90;;;8.00;99.90;;;;;;4908869;28;20722;-64
2023/11/08 07:15:43;;;;;;;9.03;2.10;;;7.90;99.90;;;;;;4900968;28;20211;-64
2023/11/08 07:18:13;;;;;;;8.77;1.80;;;8.00;99.90;;;;;;4910594;28;20192;-64
2023/11/08 07:20:39;;;;;;;5.57;2.13;;;8.00;99.90;;;;;;4909498;28;20585;-65
2023/11/08 07:23:05;;;;;;;4.90;1.80;;;8.00;99.90;;;;;;4910626;28;20267;-65
2023/11/08 07:25:32;;;;;;;4.20;1.90;;;8.00;99.90;;;;;;4909945;28;20192;-66
2023/11/08 07:27:58;;;;;;;7.07;1.60;;;8.10;99.90;;;;;;4910265;28;20212;-65
2023/11/08 07:30:23;;;;;;;6.40;1.77;;;8.00;99.90;;;;;;4910624;28;20289;-65
2023/11/08 07:32:49;;;;;;;3.93;1.80;;;8.00;99.90;;;;;;4908917;28;20222;-64
2023/11/08 07:35:15;;;;;;;9.70;2.00;;;8.10;99.90;;;;;;4910090;28;20560;-64
2023/11/08 07:37:40;;;;;;;5.33;1.90;;;8.10;99.90;;;;;;4910289;28;20203;-65
2023/11/08 07:40:07;;;;;;;9.07;2.03;;;8.30;99.90;;;;;;4902592;28;20203;-64
2023/11/08 07:42:33;;;;;;;7.80;1.87;;;8.40;99.90;;;;;;4910327;28;20219;-65
2023/11/08 07:44:58;;;;;;;8.57;1.90;;;8.40;99.90;;;;;;4909821;28;20657;-65
2023/11/08 07:47:24;;;;;;;7.07;1.77;;;8.50;99.90;;;;;;4910323;28;20662;-65
2023/11/08 07:49:50;;;;;;;8.13;1.87;;;8.50;99.90;;;;;;4910036;28;20297;-64
2023/11/08 07:52:15;;;;;;;5.50;1.80;;;8.60;99.90;;;;;;4910266;28;20195;-65
2023/11/08 07:54:41;;;;;;;7.37;2.30;;;8.60;99.90;;;;;;4909663;28;20195;-65
2023/11/08 07:57:06;;;;;;;6.20;1.90;;;8.70;99.90;;;;;;4910170;28;20215;-65
2023/11/08 07:59:33;;;;;;;11.30;1.83;;;8.80;99.90;;;;;;4910474;28;20204;-66
2023/11/08 08:01:58;;;;;;;5.10;1.40;;;9.00;99.90;;;;;;4913516;28;20183;-66
2023/11/08 08:04:25;;;;;;;5.70;1.70;;;9.20;99.90;;;;;;4913143;28;20675;-65
2023/11/08 08:06:51;;;;;;;5.30;1.83;;;9.30;99.90;;;;;;4913129;28;20184;-65
2023/11/08 08:09:17;;;;;;;5.00;1.63;;;9.40;99.90;;;;;;4913298;28;20212;-66
2023/11/08 08:11:46;;;;;;;3.27;1.60;;;9.60;99.90;;;;;;4912286;28;20709;-66
2023/11/08 08:14:12;;;;;;;6.47;1.50;;;9.70;99.90;;;;;;4912906;28;20180;-65
2023/11/08 08:16:40;;;;;;;3.93;1.60;;;9.90;99.90;;;;;;4905546;28;20183;-65
2023/11/08 08:19:06;;;;;;;6.57;1.53;;;10.00;99.90;;;;;;4913430;28;20598;-66
2023/11/08 08:21:32;;;;;;;5.07;1.50;;;10.00;99.90;;;;;;4913506;28;20211;-66
2023/11/08 08:23:58;;;;;;;3.93;1.30;;;10.00;99.90;;;;;;4912430;28;20591;-65
2023/11/08 08:26:24;;;;;;;4.93;1.40;;;10.10;99.90;;;;;;4913350;28;20199;-65
2023/11/08 08:28:50;;;;;;;4.70;1.37;;;10.10;99.90;;;;;;4912971;28;20212;-67
2023/11/08 08:31:16;;;;;;;7.03;1.57;;;10.10;99.90;;;;;;4912965;28;20199;-67
2023/11/08 08:33:41;;;;;;;7.67;1.97;;;10.00;99.90;;;;;;4912327;28;20669;-65
2023/11/08 08:36:07;;;;;;;7.73;1.97;;;9.90;99.90;;;;;;4913485;28;20233;-65
2023/11/08 08:38:33;;;;;;;7.67;1.90;;;9.80;99.90;;;;;;4911836;28;20665;-66
2023/11/08 08:40:58;;;;;;;5.17;1.60;;;9.70;99.90;;;;;;4904993;28;20284;-66
2023/11/08 08:43:24;;;;;;;4.30;1.60;;;9.70;99.90;;;;;;4912964;28;20184;-66
2023/11/08 08:45:50;;;;;;;5.67;1.73;;;9.70;99.90;;;;;;4912344;28;20665;-65
2023/11/08 08:48:17;;;;;;;6.83;1.53;;;9.70;99.90;;;;;;4912736;28;20219;-66
2023/11/08 08:50:43;;;;;;;4.37;1.40;;;9.70;99.90;;;;;;4911225;28;20219;-66
2023/11/08 08:53:08;;;;;;;4.50;1.60;;;9.70;99.90;;;;;;4912722;28;20642;-66
2023/11/08 08:55:37;;;;;;;7.87;1.50;;;9.80;99.90;;;;;;4911915;28;20184;-66
2023/11/08 08:58:04;;;;;;;6.30;1.47;;;9.90;99.90;;;;;;4912611;28;20180;-65
2023/11/08 09:00:30;;;;;;;8.10;1.53;;;10.00;99.90;;;;;;4943140;28;20200;-66
2023/11/08 09:02:55;;;;;;;5.63;1.30;;;10.20;99.90;;;;;;4912327;28;20185;-66
2023/11/08 09:05:21;;;;;;;6.80;1.80;;;10.40;99.90;;;;;;4907096;28;20259;-65
2023/11/08 09:07:47;;;;;;;6.43;1.30;;;10.50;99.90;;;;;;4910670;28;20286;-65
2023/11/08 09:10:14;;;;;;;9.70;1.93;;;10.50;99.90;;;;;;4906279;28;20202;-67
2023/11/08 09:12:41;;;;;;;5.10;1.70;;;10.50;99.90;;;;;;4911093;28;20184;-66
2023/11/08 09:15:07;;;;;;;8.30;1.43;;;10.40;99.90;;;;;;4905068;28;20207;-66
2023/11/08 09:17:33;;;;;;;3.27;1.10;;;10.30;99.90;;;;;;4912431;28;20236;-65
2023/11/08 09:20:01;;;;;;;5.33;1.40;;;10.20;99.90;;;;;;4912176;28;20314;-67
2023/11/08 09:22:27;;;;;;;4.43;1.83;;;10.10;99.90;;;;;;4912095;28;20184;-64
2023/11/08 09:24:52;;;;;;;5.43;1.40;;;10.00;99.90;;;;;;4911605;28;20199;-65
2023/11/08 09:27:18;;;;;;;4.73;1.83;;;10.00;99.90;;;;;;4912223;28;20223;-65
2023/11/08 09:29:44;;;;;;;5.23;1.40;;;10.20;99.90;;;;;;4912292;28;20208;-65
2023/11/08 09:32:10;;;;;;;7.20;1.60;;;10.30;99.90;;;;;;4912286;28;20611;-65
2023/11/08 09:34:36;;;;;;;7.33;1.50;;;10.60;99.90;;;;;;4911396;28;20677;-65
2023/11/08 09:37:02;;;;;;;3.23;1.13;;;11.00;99.90;;;;;;4912197;28;20215;-65
2023/11/08 09:39:31;;;;;;;7.57;2.37;;;11.50;99.90;;;;;;4910793;28;20179;-66
2023/11/08 09:41:57;;;;;;;6.27;1.53;;;12.00;99.90;;;;;;4909434;28;20560;-65
2023/11/08 09:44:27;;;;;;;7.27;1.73;;;12.30;99.90;;;;;;4906918;28;20188;-65
2023/11/08 09:46:56;;;;;;;7.30;1.70;;;12.80;99.90;;;;;;4912355;28;20214;-66
2023/11/08 09:49:25;;;;;;;12.07;1.23;;;12.90;99.90;;;;;;4911753;28;20238;-65
2023/11/08 09:51:52;;;;;;;6.37;1.37;;;12.80;99.90;;;;;;4911764;28;20192;-65
2023/11/08 09:54:18;;;;;;;5.50;1.27;;;12.60;99.90;;;;;;4911551;28;20188;-66
2023/11/08 09:56:44;;;;;;;3.87;1.27;;;12.40;99.90;;;;;;4911964;28;20184;-64
2023/11/08 09:59:15;;;;;;;3.97;1.33;;;12.60;99.90;;;;;;4911771;28;20176;-65
2023/11/08 10:01:47;;;;;;;3.33;1.30;;;12.60;99.90;;;;;;4911855;28;20183;-65
2023/11/08 10:04:16;;;;;;;4.10;1.50;;;12.90;99.90;;;;;;4911237;28;20180;-65
2023/11/08 10:06:45;;;;;;;5.47;1.17;;;12.90;99.90;;;;;;4911395;28;20199;-66
2023/11/08 10:09:11;;;;;;;5.27;1.20;;;12.90;99.90;;;;;;4911862;28;20587;-66
2023/11/08 10:11:39;;;;;;;5.40;1.20;;;12.80;99.90;;;;;;4910762;28;20238;-66
2023/11/08 10:14:05;;;;;;;3.10;1.67;;;12.60;99.90;;;;;;4911149;28;20249;-66
2023/11/08 10:16:44;;;;;;;9.07;1.87;;;12.50;99.90;;;;;;4911200;28;20670;-66
2023/11/08 10:19:10;;;;;;;6.17;1.30;;;12.20;99.90;;;;;;4905218;28;20210;-66
2023/11/08 10:21:36;;;;;;;7.97;1.40;;;12.10;99.90;;;;;;4911641;28;20184;-66
2023/11/08 10:24:13;;;;;;;7.83;1.40;;;12.00;99.90;;;;;;4901626;28;20188;-65
2023/11/08 10:26:39;;;;;;;5.37;1.47;;;11.90;99.90;;;;;;4910573;28;20278;-65
2023/11/08 10:29:05;;;;;;;4.77;1.03;;;11.80;99.90;;;;;;4910303;28;20357;-65
2023/11/08 10:31:37;;;;;;;6.63;1.40;;;11.90;99.90;;;;;;4911291;28;20200;-65
2023/11/08 10:34:08;;;;;;;4.20;1.37;;;12.00;99.90;;;;;;4910949;28;20184;-65
2023/11/08 10:36:35;;;;;;;6.83;1.27;;;12.00;99.90;;;;;;4911381;28;20184;-65
2023/11/08 10:39:04;;;;;;;5.03;1.60;;;12.20;99.90;;;;;;4911266;28;20184;-65
2023/11/08 10:41:29;;;;;;;5.77;1.53;;;12.30;99.90;;;;;;4911165;28;20593;-65
2023/11/08 10:44:12;;;;;;;3.80;1.10;;;12.50;99.90;;;;;;4902786;28;20196;-65
2023/11/08 10:46:40;;;;;;;6.70;1.40;;;12.80;99.90;;;;;;4911115;28;20609;-65
2023/11/08 10:49:06;;;;;;;4.67;1.53;;;12.90;99.90;;;;;;4910987;28;20219;-66
2023/11/08 10:51:40;;;;;;;5.27;1.13;;;13.20;99.90;;;;;;4910977;28;20204;-66
2023/11/08 10:54:06;;;;;;;4.97;1.27;;;13.20;99.90;;;;;;4903283;28;20184;-65
2023/11/08 10:56:33;;;;;;;7.67;1.00;;;12.90;99.90;;;;;;4911165;28;20266;-65
2023/11/08 10:59:07;;;;;;;8.10;1.37;;;12.70;99.90;;;;;;4910899;28;20186;-65
2023/11/08 11:01:35;;;;;;;6.73;1.47;;;12.60;99.90;;;;;;4911108;28;20218;-65
2023/11/08 11:04:05;;;;;;;9.07;1.57;;;12.50;99.90;;;;;;4910088;28;20214;-66
2023/11/08 11:06:34;;;;;;;7.73;1.27;;;12.60;99.90;;;;;;4910515;28;20188;-65
2023/11/08 11:09:03;;;;;;;8.27;1.20;;;12.70;99.90;;;;;;4910482;28;20685;-65
2023/11/08 11:11:31;;;;;;;4.80;1.27;;;12.70;99.90;;;;;;4910560;28;20207;-65
2023/11/08 11:14:17;;;;;;;8.80;1.23;;;12.70;99.90;;;;;;4910123;28;20188;-65
2023/11/08 11:17:03;;;;;;;5.27;0.90;;;12.60;99.90;;;;;;4910945;28;20183;-65
2023/11/08 11:19:32;;;;;;;8.10;1.17;;;12.80;99.90;;;;;;4910745;28;20219;-65
2023/11/08 11:22:05;;;;;;;5.43;1.10;;;12.80;99.90;;;;;;4910541;28;20574;-65
2023/11/08 11:24:34;;;;;;;5.53;1.00;;;12.80;99.90;;;;;;4910245;28;20230;-65
2023/11/08 11:27:01;;;;;;;5.97;1.17;;;12.60;99.90;;;;;;4910557;28;20692;-66
2023/11/08 11:29:27;;;;;;;3.17;0.90;;;12.60;99.90;;;;;;4905880;28;20592;-65
2023/11/08 11:31:53;;;;;;;10.93;2.30;;;12.70;99.90;;;;;;4907001;28;20196;-65
2023/11/08 11:34:29;;;;;;;1.57;0.90;;;13.00;99.90;;;;;;4904488;28;20218;-65
2023/11/08 11:37:05;;;;;;;7.23;1.40;;;13.10;99.90;;;;;;4913636;28;20210;-64
2023/11/08 11:39:32;;;;;;;4.30;1.10;;;13.40;99.90;;;;;;4907149;28;20234;-64
2023/11/08 11:42:05;;;;;;;4.17;0.87;;;13.50;99.90;;;;;;4904129;28;20226;-65
2023/11/08 11:44:49;;;;;;;7.23;1.07;;;13.90;99.90;;;;;;4911587;28;20271;-65
2023/11/08 11:47:17;;;;;;;3.80;0.80;;;14.20;99.90;;;;;;4913762;28;20188;-65
2023/11/08 11:49:50;;;;;;;4.97;1.20;;;14.50;99.90;;;;;;4904493;28;20215;-65
2023/11/08 11:52:19;;;;;;;2.27;0.80;;;14.70;99.90;;;;;;4912308;28;20254;-66
2023/11/08 11:54:46;;;;;;;5.03;1.00;;;14.60;99.90;;;;;;4905064;28;20203;-66
2023/11/08 11:57:14;;;;;;;5.90;1.23;;;14.50;99.90;;;;;;4913711;28;20576;-65
2023/11/08 11:59:39;;;;;;;3.33;0.87;;;14.60;99.90;;;;;;4913385;28;20199;-66
2023/11/08 12:02:05;;;;;;;2.63;0.67;;;14.60;99.90;;;;;;4908824;28;20220;-65
2023/11/08 12:04:31;;;;;;;6.20;0.73;;;14.40;99.90;;;;;;4908839;28;20192;-67
2023/11/08 12:06:56;;;;;;;4.00;0.90;;;14.00;99.90;;;;;;4913129;28;20200;-66
2023/11/08 12:09:24;;;;;;;7.53;1.30;;;13.80;99.90;;;;;;4907269;28;20653;-65
2023/11/08 12:11:50;;;;;;;3.33;1.10;;;13.60;99.90;;;;;;4911770;28;20183;-65
2023/11/08 12:14:21;;;;;;;3.00;0.83;;;13.60;99.90;;;;;;4912690;28;20574;-64
2023/11/08 12:16:50;;;;;;;3.60;1.03;;;13.30;99.90;;;;;;4912793;28;20677;-66
2023/11/08 12:19:17;;;;;;;2.03;0.70;;;13.20;99.90;;;;;;4913323;28;20267;-64
2023/11/08 12:21:46;;;;;;;3.77;0.90;;;12.90;99.90;;;;;;4912823;28;20191;-66
2023/11/08 12:24:12;;;;;;;3.57;0.90;;;13.00;99.90;;;;;;4912989;28;20188;-64
2023/11/08 12:26:38;;;;;;;3.47;1.10;;;13.20;99.90;;;;;;4905329;28;20235;-65
2023/11/08 12:29:06;;;;;;;3.00;0.70;;;13.40;99.90;;;;;;4905378;28;20207;-65
2023/11/08 12:31:34;;;;;;;5.30;0.80;;;13.40;99.90;;;;;;4913168;28;20200;-65
2023/11/08 12:34:03;;;;;;;4.47;0.73;;;13.60;99.90;;;;;;4912269;28;20191;-66
2023/11/08 12:36:29;;;;;;;8.73;1.10;;;13.80;99.90;;;;;;4906386;28;20196;-66
2023/11/08 12:38:55;;;;;;;3.03;0.90;;;14.00;99.90;;;;;;4921638;28;20187;-64
2023/11/08 12:41:21;;;;;;;5.90;1.30;;;14.10;99.90;;;;;;4935877;28;20362;-65
2023/11/08 12:43:59;;;;;;;8.17;1.33;;;13.80;99.90;;;;;;4904422;28;20196;-64
2023/11/08 12:46:24;;;;;;;2.07;1.00;;;13.70;99.90;;;;;;4911935;28;20187;-65
2023/11/08 12:48:58;;;;;;;4.93;1.43;;;13.20;99.90;;;;;;4912464;28;20218;-65
2023/11/08 12:51:32;;;;;;;2.47;0.70;;;13.00;99.90;;;;;;4912622;28;20208;-65